createdAt,value
2022-08-18T00:00:33.886Z,92.70
2022-08-18T00:01:33.958Z,103.80
2022-08-18T00:02:33.935Z,100.30
2022-08-18T00:03:56.461Z,98.50
2022-08-18T00:04:45.311Z,93.50
2022-08-18T00:05:34.837Z,97.50
2022-08-18T00:06:33.846Z,95.70
2022-08-18T00:07:33.830Z,98.80
2022-08-18T00:08:37.338Z,96.00
2022-08-18T00:09:34.802Z,105.10
2022-08-18T00:10:33.798Z,101.50
2022-08-18T00:11:41.123Z,119.30
2022-08-18T00:12:34.772Z,113.40
2022-08-18T00:13:33.766Z,106.00
2022-08-18T00:14:33.754Z,105.00
2022-08-18T00:15:41.522Z,108.80
2022-08-18T00:16:34.775Z,115.20
2022-08-18T00:17:33.723Z,109.40
2022-08-18T00:18:33.718Z,102.30
2022-08-18T00:19:47.014Z,101.00
2022-08-18T00:20:34.699Z,97.20
2022-08-18T00:21:33.719Z,101.20
2022-08-18T00:22:33.684Z,100.90
2022-08-18T00:23:33.672Z,106.00
2022-08-18T00:24:33.655Z,98.90
2022-08-18T00:25:33.647Z,85.90
2022-08-18T00:26:36.951Z,86.90
2022-08-18T00:27:34.647Z,81.40
2022-08-18T00:28:33.621Z,82.40
2022-08-18T00:29:33.614Z,76.10
2022-08-18T00:30:33.601Z,91.30
2022-08-18T00:31:33.593Z,74.20
2022-08-18T00:32:33.727Z,101.40
2022-08-18T00:33:33.574Z,94.50
2022-08-18T00:34:33.566Z,63.60
2022-08-18T00:35:33.555Z,67.70
2022-08-18T00:36:33.544Z,65.10
2022-08-18T00:37:33.551Z,70.40
2022-08-18T00:38:33.527Z,73.40
2022-08-18T00:39:34.293Z,65.10
2022-08-18T00:40:37.795Z,86.20
2022-08-18T00:41:34.495Z,72.20
2022-08-18T00:42:33.517Z,69.20
2022-08-18T00:43:33.474Z,73.20
2022-08-18T00:44:33.472Z,71.00
2022-08-18T00:45:33.455Z,76.80
2022-08-18T00:46:33.447Z,65.20
2022-08-18T00:47:42.324Z,66.80
2022-08-18T00:48:34.423Z,68.80
2022-08-18T00:49:33.417Z,70.50
2022-08-18T00:50:33.406Z,72.30
2022-08-18T00:51:33.401Z,75.70
2022-08-18T00:52:33.386Z,71.60
2022-08-18T00:53:33.396Z,77.70
2022-08-18T00:54:33.371Z,79.80
2022-08-18T00:55:33.357Z,82.50
2022-08-18T00:56:33.340Z,86.80
2022-08-18T00:57:33.335Z,101.10
2022-08-18T00:58:35.644Z,108.00
2022-08-18T00:59:33.309Z,86.10
2022-08-18T01:00:33.355Z,74.60
2022-08-18T01:01:33.294Z,106.50
2022-08-18T01:02:33.285Z,94.90
2022-08-18T01:03:33.304Z,108.40
2022-08-18T01:04:33.268Z,98.00
2022-08-18T01:05:33.257Z,96.40
2022-08-18T01:06:33.240Z,102.90
2022-08-18T01:07:33.235Z,93.80
2022-08-18T01:08:33.270Z,101.60
2022-08-18T01:09:33.218Z,102.90
2022-08-18T01:10:33.203Z,93.40
2022-08-18T01:11:33.195Z,87.50
2022-08-18T01:12:45.672Z,94.40
2022-08-18T01:13:34.248Z,92.20
2022-08-18T01:14:33.172Z,86.30
2022-08-18T01:15:33.159Z,89.60
2022-08-18T01:16:33.148Z,87.00
2022-08-18T01:17:33.137Z,102.40
2022-08-18T01:18:33.126Z,94.10
2022-08-18T01:19:33.131Z,82.50
2022-08-18T01:20:33.109Z,90.10
2022-08-18T01:21:33.109Z,89.20
2022-08-18T01:22:33.085Z,88.80
2022-08-18T01:23:33.071Z,87.90
2022-08-18T01:24:33.083Z,94.70
2022-08-18T01:25:33.053Z,118.40
2022-08-18T01:26:33.069Z,111.80
2022-08-18T01:27:33.034Z,120.90
2022-08-18T01:28:33.125Z,115.10
2022-08-18T01:29:33.027Z,106.20
2022-08-18T01:30:33.007Z,112.30
2022-08-18T01:31:32.996Z,131.30
2022-08-18T01:32:32.983Z,125.80
2022-08-18T01:33:32.971Z,113.00
2022-08-18T01:34:32.978Z,121.00
2022-08-18T01:35:41.687Z,114.10
2022-08-18T01:36:33.943Z,115.60
2022-08-18T01:37:32.948Z,113.30
2022-08-18T01:38:32.928Z,108.80
2022-08-18T01:41:23.005Z,114.10
2022-08-18T01:41:23.344Z,119.60
2022-08-18T01:41:33.941Z,129.90
2022-08-18T01:42:32.891Z,111.20
2022-08-18T01:43:32.873Z,105.60
2022-08-18T01:44:32.945Z,106.40
2022-08-18T01:45:32.853Z,107.70
2022-08-18T01:46:32.841Z,106.70
2022-08-18T01:47:58.300Z,111.10
2022-08-18T01:48:33.821Z,114.40
2022-08-18T01:49:32.813Z,107.90
2022-08-18T01:50:32.834Z,105.10
2022-08-18T01:51:38.852Z,106.50
2022-08-18T01:52:33.785Z,113.40
2022-08-18T01:53:32.774Z,109.40
2022-08-18T01:54:32.763Z,105.40
2022-08-18T01:55:32.794Z,117.10
2022-08-18T01:56:32.743Z,113.70
2022-08-18T01:57:32.733Z,116.00
2022-08-18T01:58:32.721Z,109.60
2022-08-18T01:59:32.762Z,107.20
2022-08-18T02:00:32.704Z,111.00
2022-08-18T02:01:36.413Z,98.30
2022-08-18T02:02:32.679Z,110.30
2022-08-18T02:03:32.671Z,115.60
2022-08-18T02:04:37.260Z,106.90
2022-08-18T02:05:33.663Z,108.00
2022-08-18T02:06:33.745Z,102.60
2022-08-18T02:07:36.509Z,99.40
2022-08-18T02:08:33.624Z,104.70
2022-08-18T02:09:32.618Z,98.30
2022-08-18T02:10:32.606Z,99.10
2022-08-18T02:11:32.592Z,97.40
2022-08-18T02:12:32.604Z,107.30
2022-08-18T02:13:32.577Z,91.80
2022-08-18T02:14:32.568Z,92.60
2022-08-18T02:15:32.573Z,85.30
2022-08-18T02:16:32.547Z,87.80
2022-08-18T02:17:32.555Z,81.40
2022-08-18T02:18:48.223Z,85.50
2022-08-18T02:19:33.517Z,84.80
2022-08-18T02:20:32.508Z,89.50
2022-08-18T02:21:32.495Z,92.10
2022-08-18T02:22:32.506Z,98.90
2022-08-18T02:23:32.477Z,95.80
2022-08-18T02:24:32.474Z,92.00
2022-08-18T02:25:32.457Z,85.30
2022-08-18T02:26:32.451Z,84.70
2022-08-18T02:27:32.501Z,72.10
2022-08-18T02:28:32.432Z,75.50
2022-08-18T02:29:32.423Z,82.50
2022-08-18T02:30:32.418Z,83.00
2022-08-18T02:31:32.398Z,74.80
2022-08-18T02:32:32.420Z,77.80
2022-08-18T02:33:32.381Z,78.70
2022-08-18T02:34:32.375Z,79.90
2022-08-18T02:35:32.362Z,81.00
2022-08-18T02:36:32.348Z,80.60
2022-08-18T02:37:32.341Z,87.40
2022-08-18T02:38:33.487Z,98.90
2022-08-18T02:39:32.346Z,100.00
2022-08-18T02:40:32.314Z,100.00
2022-08-18T02:41:32.304Z,97.30
2022-08-18T02:42:32.305Z,99.70
2022-08-18T02:43:37.542Z,101.60
2022-08-18T02:44:34.272Z,103.00
2022-08-18T02:45:32.263Z,110.60
2022-08-18T02:46:32.255Z,103.60
2022-08-18T02:47:33.815Z,113.30
2022-08-18T02:48:33.269Z,105.20
2022-08-18T02:49:32.220Z,99.80
2022-08-18T02:50:32.212Z,103.90
2022-08-18T02:51:32.204Z,102.00
2022-08-18T02:52:32.192Z,108.20
2022-08-18T02:53:32.185Z,112.80
2022-08-18T02:54:32.193Z,109.30
2022-08-18T02:55:32.161Z,112.20
2022-08-18T02:56:39.918Z,115.80
2022-08-18T02:57:33.144Z,117.60
2022-08-18T02:58:33.698Z,123.10
2022-08-18T02:59:33.666Z,117.90
2022-08-18T03:00:32.113Z,116.90
2022-08-18T03:01:32.177Z,120.50
2022-08-18T03:02:32.095Z,121.20
2022-08-18T03:03:32.087Z,116.80
2022-08-18T03:04:32.090Z,124.40
2022-08-18T03:05:32.079Z,121.40
2022-08-18T03:06:32.053Z,131.20
2022-08-18T03:07:32.045Z,122.40
2022-08-18T03:08:32.037Z,119.60
2022-08-18T03:09:32.016Z,122.80
2022-08-18T03:10:34.263Z,126.00
2022-08-18T03:11:33.002Z,121.70
2022-08-18T03:12:31.999Z,121.70
2022-08-18T03:13:31.988Z,116.10
2022-08-18T03:14:31.978Z,117.80
2022-08-18T03:15:31.996Z,130.10
2022-08-18T03:16:31.961Z,128.90
2022-08-18T03:17:31.952Z,135.80
2022-08-18T03:18:31.942Z,129.50
2022-08-18T03:19:31.936Z,130.90
2022-08-18T03:20:31.919Z,132.80
2022-08-18T03:21:31.969Z,124.70
2022-08-18T03:22:31.895Z,119.00
2022-08-18T03:23:31.887Z,126.10
2022-08-18T03:25:03.769Z,138.20
2022-08-18T03:25:31.873Z,130.60
2022-08-18T03:26:31.889Z,138.00
2022-08-18T03:27:31.857Z,131.60
2022-08-18T03:28:31.836Z,136.20
2022-08-18T03:29:32.926Z,134.40
2022-08-18T03:30:32.827Z,135.70
2022-08-18T03:31:31.816Z,131.30
2022-08-18T03:32:31.815Z,140.00
2022-08-18T03:33:31.829Z,141.10
2022-08-18T03:34:31.785Z,140.80
2022-08-18T03:35:31.776Z,137.00
2022-08-18T03:36:31.768Z,136.50
2022-08-18T03:37:31.774Z,138.70
2022-08-18T03:38:31.747Z,134.60
2022-08-18T03:39:31.792Z,131.90
2022-08-18T03:40:31.725Z,138.60
2022-08-18T03:41:43.589Z,149.00
2022-08-18T03:42:32.724Z,141.00
2022-08-18T03:43:51.246Z,138.10
2022-08-18T03:44:32.693Z,139.20
2022-08-18T03:45:31.679Z,147.20
2022-08-18T03:46:31.663Z,142.20
2022-08-18T03:47:31.670Z,144.40
2022-08-18T03:48:31.644Z,133.40
2022-08-18T03:49:31.636Z,136.60
2022-08-18T03:50:31.628Z,128.30
2022-08-18T03:51:31.621Z,139.70
2022-08-18T03:52:31.618Z,130.60
2022-08-18T03:53:31.595Z,138.90
2022-08-18T03:54:31.590Z,135.00
2022-08-18T03:55:31.576Z,147.60
2022-08-18T03:56:31.562Z,153.00
2022-08-18T03:57:31.572Z,149.70
2022-08-18T03:58:32.546Z,153.90
2022-08-18T03:59:31.539Z,149.60
2022-08-18T04:00:31.550Z,147.90
2022-08-18T04:01:31.581Z,139.80
2022-08-18T04:02:31.534Z,144.90
2022-08-18T04:03:31.498Z,147.70
2022-08-18T04:04:31.495Z,139.40
2022-08-18T04:05:31.476Z,141.80
2022-08-18T04:06:31.479Z,138.40
2022-08-18T04:07:31.471Z,135.90
2022-08-18T04:08:31.444Z,134.60
2022-08-18T04:09:31.430Z,136.30
2022-08-18T04:10:31.423Z,136.80
2022-08-18T04:11:35.865Z,145.20
2022-08-18T04:12:32.425Z,142.30
2022-08-18T04:13:31.399Z,145.70
2022-08-18T04:14:31.387Z,136.30
2022-08-18T04:15:31.377Z,145.40
2022-08-18T04:16:31.367Z,137.60
2022-08-18T04:17:31.372Z,138.60
2022-08-18T04:18:31.346Z,145.20
2022-08-18T04:19:31.339Z,137.90
2022-08-18T04:20:31.327Z,141.10
2022-08-18T04:21:31.321Z,130.90
2022-08-18T04:22:31.330Z,140.70
2022-08-18T04:23:31.840Z,141.30
2022-08-18T04:24:33.245Z,134.00
2022-08-18T04:25:33.022Z,137.20
2022-08-18T04:26:32.271Z,142.90
2022-08-18T04:27:31.273Z,138.50
2022-08-18T04:28:31.267Z,138.00
2022-08-18T04:29:31.242Z,133.80
2022-08-18T04:30:31.269Z,130.60
2022-08-18T04:31:31.230Z,133.00
2022-08-18T04:32:31.246Z,134.00
2022-08-18T04:33:31.201Z,127.50
2022-08-18T04:34:31.192Z,136.20
2022-08-18T04:35:31.187Z,137.20
2022-08-18T04:36:31.169Z,138.40
2022-08-18T04:37:31.191Z,138.00
2022-08-18T04:38:31.152Z,142.10
2022-08-18T04:39:31.222Z,138.00
2022-08-18T04:40:31.129Z,136.90
2022-08-18T04:41:31.121Z,142.50
2022-08-18T04:42:31.113Z,142.80
2022-08-18T04:43:31.118Z,142.40
2022-08-18T04:44:31.095Z,139.10
2022-08-18T04:45:31.097Z,146.80
2022-08-18T04:46:31.074Z,140.10
2022-08-18T04:47:31.068Z,143.10
2022-08-18T04:48:31.074Z,133.60
2022-08-18T04:49:31.040Z,133.90
2022-08-18T04:50:31.044Z,135.20
2022-08-18T04:52:26.881Z,144.10
2022-08-18T04:52:39.687Z,146.50
2022-08-18T04:53:32.023Z,148.80
2022-08-18T04:54:30.996Z,147.60
2022-08-18T04:55:30.985Z,142.80
2022-08-18T04:56:30.978Z,141.70
2022-08-18T04:57:33.579Z,138.50
2022-08-18T04:58:30.988Z,136.90
2022-08-18T04:59:30.946Z,134.80
2022-08-18T05:00:30.939Z,129.70
2022-08-18T05:01:30.959Z,132.60
2022-08-18T05:02:30.918Z,133.20
2022-08-18T05:03:30.954Z,136.80
2022-08-18T05:04:30.899Z,134.90
2022-08-18T05:05:30.892Z,129.80
2022-08-18T05:06:30.884Z,132.60
2022-08-18T05:07:30.874Z,127.90
2022-08-18T05:08:30.861Z,127.20
2022-08-18T05:09:30.867Z,130.90
2022-08-18T05:10:31.850Z,124.80
2022-08-18T05:11:30.833Z,118.50
2022-08-18T05:12:30.822Z,118.70
2022-08-18T05:13:30.808Z,114.10
2022-08-18T05:14:30.817Z,114.80
2022-08-18T05:15:46.831Z,112.80
2022-08-18T05:16:32.780Z,110.40
2022-08-18T05:17:31.198Z,138.70
2022-08-18T05:18:30.762Z,132.70
2022-08-18T05:19:30.761Z,132.40
2022-08-18T05:20:30.742Z,129.40
2022-08-18T05:21:30.733Z,121.00
2022-08-18T05:22:31.773Z,127.00
2022-08-18T05:23:30.715Z,125.70
2022-08-18T05:24:36.916Z,122.00
2022-08-18T05:25:32.694Z,119.90
2022-08-18T05:26:30.696Z,121.90
2022-08-18T05:27:30.680Z,119.20
2022-08-18T05:28:30.664Z,122.20
2022-08-18T05:29:30.682Z,125.80
2022-08-18T05:30:30.642Z,124.00
2022-08-18T05:31:30.647Z,124.20
2022-08-18T05:32:47.543Z,134.30
2022-08-18T05:33:31.612Z,125.30
2022-08-18T05:34:30.607Z,127.60
2022-08-18T05:35:30.615Z,116.30
2022-08-18T05:36:30.627Z,120.00
2022-08-18T05:37:30.577Z,121.80
2022-08-18T05:38:31.567Z,117.90
2022-08-18T05:39:30.597Z,108.80
2022-08-18T05:40:30.561Z,107.70
2022-08-18T05:41:30.534Z,115.90
2022-08-18T05:42:30.526Z,110.30
2022-08-18T05:43:30.518Z,119.40
2022-08-18T05:44:30.510Z,120.50
2022-08-18T05:45:30.533Z,107.80
2022-08-18T05:46:30.494Z,107.40
2022-08-18T05:47:30.483Z,116.80
2022-08-18T05:48:30.492Z,117.10
2022-08-18T05:49:30.453Z,109.20
2022-08-18T05:50:30.472Z,112.10
2022-08-18T05:51:30.435Z,119.50
2022-08-18T05:52:30.424Z,115.00
2022-08-18T05:53:30.414Z,102.30
2022-08-18T05:54:30.408Z,110.10
2022-08-18T05:55:30.396Z,110.30
2022-08-18T05:56:30.397Z,114.30
2022-08-18T05:57:30.376Z,115.30
2022-08-18T05:58:33.149Z,114.40
2022-08-18T05:59:30.356Z,119.30
2022-08-18T06:00:30.353Z,116.60
2022-08-18T06:01:30.385Z,120.00
2022-08-18T06:02:30.409Z,112.80
2022-08-18T06:03:30.472Z,108.00
2022-08-18T06:04:31.304Z,114.80
2022-08-18T06:05:30.295Z,116.60
2022-08-18T06:06:30.341Z,122.50
2022-08-18T06:07:33.662Z,118.70
2022-08-18T06:08:30.271Z,114.00
2022-08-18T06:09:30.316Z,111.70
2022-08-18T06:10:30.252Z,122.00
2022-08-18T06:11:30.236Z,121.60
2022-08-18T06:12:30.241Z,125.10
2022-08-18T06:13:30.217Z,129.40
2022-08-18T06:14:30.208Z,121.70
2022-08-18T06:15:30.199Z,118.70
2022-08-18T06:16:30.194Z,124.00
2022-08-18T06:17:30.231Z,121.00
2022-08-18T06:18:31.171Z,121.40
2022-08-18T06:19:30.160Z,128.10
2022-08-18T06:20:30.150Z,124.20
2022-08-18T06:21:30.136Z,134.00
2022-08-18T06:22:31.297Z,126.40
2022-08-18T06:23:30.121Z,129.70
2022-08-18T06:24:30.121Z,119.80
2022-08-18T06:25:30.098Z,115.50
2022-08-18T06:26:30.091Z,128.00
2022-08-18T06:27:30.082Z,121.10
2022-08-18T06:28:30.086Z,126.40
2022-08-18T06:29:30.069Z,122.40
2022-08-18T06:30:30.059Z,123.70
2022-08-18T06:31:30.041Z,124.90
2022-08-18T06:32:30.027Z,135.60
2022-08-18T06:33:30.037Z,131.00
2022-08-18T06:34:30.016Z,138.60
2022-08-18T06:35:30.003Z,125.50
2022-08-18T06:36:29.994Z,130.90
2022-08-18T06:37:29.988Z,130.70
2022-08-18T06:38:30.021Z,121.70
2022-08-18T06:39:29.993Z,121.70
2022-08-18T06:40:29.956Z,127.30
2022-08-18T06:41:41.572Z,130.30
2022-08-18T06:42:30.937Z,128.70
2022-08-18T06:43:29.970Z,133.30
2022-08-18T06:44:29.944Z,132.40
2022-08-18T06:45:33.824Z,130.90
2022-08-18T06:46:30.891Z,134.40
2022-08-18T06:47:29.885Z,137.00
2022-08-18T06:48:29.878Z,129.90
2022-08-18T06:49:29.885Z,128.70
2022-08-18T06:50:29.860Z,119.90
2022-08-18T06:51:29.843Z,117.90
2022-08-18T06:52:29.839Z,115.70
2022-08-18T06:53:29.824Z,129.30
2022-08-18T06:54:29.913Z,128.10
2022-08-18T06:55:29.807Z,125.60
2022-08-18T06:56:29.798Z,122.80
2022-08-18T06:57:29.788Z,125.50
2022-08-18T06:58:29.775Z,130.20
2022-08-18T06:59:29.803Z,129.00
2022-08-18T07:00:32.447Z,130.70
2022-08-18T07:01:29.768Z,120.50
2022-08-18T07:02:29.738Z,116.40
2022-08-18T07:03:30.728Z,122.60
2022-08-18T07:04:29.739Z,124.90
2022-08-18T07:05:29.736Z,123.80
2022-08-18T07:06:29.696Z,116.70
2022-08-18T07:07:29.688Z,122.30
2022-08-18T07:08:30.678Z,122.10
2022-08-18T07:09:29.662Z,119.10
2022-08-18T07:10:29.692Z,127.70
2022-08-18T07:11:29.698Z,126.40
2022-08-18T07:12:32.860Z,127.00
2022-08-18T07:13:30.628Z,123.90
2022-08-18T07:14:29.644Z,124.80
2022-08-18T07:15:29.653Z,121.90
2022-08-18T07:16:54.532Z,116.30
2022-08-18T07:17:43.591Z,121.40
2022-08-18T07:18:30.579Z,112.50
2022-08-18T07:19:29.578Z,109.30
2022-08-18T07:20:29.591Z,109.40
2022-08-18T07:21:29.557Z,110.50
2022-08-18T07:22:38.882Z,109.50
2022-08-18T07:23:30.536Z,109.20
2022-08-18T07:24:29.519Z,110.90
2022-08-18T07:25:29.511Z,113.00
2022-08-18T07:26:29.541Z,106.90
2022-08-18T07:27:29.492Z,105.70
2022-08-18T07:28:29.486Z,101.00
2022-08-18T07:29:29.470Z,107.60
2022-08-18T07:30:29.459Z,112.30
2022-08-18T07:31:29.505Z,107.90
2022-08-18T07:32:29.474Z,109.60
2022-08-18T07:33:29.434Z,110.70
2022-08-18T07:34:29.424Z,105.30
2022-08-18T07:35:29.413Z,112.10
2022-08-18T07:36:29.421Z,106.70
2022-08-18T07:37:29.428Z,109.00
2022-08-18T07:38:42.779Z,113.50
2022-08-18T07:39:31.429Z,108.00
2022-08-18T07:40:29.358Z,106.00
2022-08-18T07:41:29.348Z,108.60
2022-08-18T07:42:34.936Z,109.30
2022-08-18T07:43:30.326Z,106.50
2022-08-18T07:44:29.317Z,106.70
2022-08-18T07:45:29.310Z,103.30
2022-08-18T07:46:29.291Z,111.70
2022-08-18T07:47:30.334Z,109.20
2022-08-18T07:48:44.635Z,102.20
2022-08-18T07:49:31.271Z,112.50
2022-08-18T07:50:57.593Z,109.70
2022-08-18T07:51:33.937Z,108.80
2022-08-18T07:52:44.059Z,101.60
2022-08-18T07:53:30.259Z,105.20
2022-08-18T07:54:49.055Z,100.30
2022-08-18T07:55:31.215Z,109.90
2022-08-18T07:56:29.208Z,111.50
2022-08-18T07:57:29.200Z,108.40
2022-08-18T07:58:29.217Z,103.70
2022-08-18T07:59:29.185Z,109.10
2022-08-18T08:00:57.105Z,106.70
2022-08-18T08:01:33.670Z,101.60
2022-08-18T08:02:29.153Z,99.60
2022-08-18T08:03:29.141Z,104.80
2022-08-18T08:04:29.148Z,96.90
2022-08-18T08:05:29.121Z,97.50
2022-08-18T08:06:29.110Z,100.80
2022-08-18T08:07:29.100Z,104.10
2022-08-18T08:08:29.090Z,103.70
2022-08-18T08:09:29.113Z,100.40
2022-08-18T08:10:29.068Z,96.20
2022-08-18T08:11:29.062Z,100.90
2022-08-18T08:12:29.052Z,101.10
2022-08-18T08:13:51.733Z,93.10
2022-08-18T08:14:31.067Z,95.40
2022-08-18T08:15:29.027Z,104.50
2022-08-18T08:16:29.016Z,97.00
2022-08-18T08:17:29.003Z,97.90
2022-08-18T08:18:28.994Z,98.60
2022-08-18T08:19:58.432Z,94.70
2022-08-18T08:20:32.844Z,94.10
2022-08-18T08:21:28.972Z,99.30
2022-08-18T08:22:28.959Z,102.80
2022-08-18T08:23:28.944Z,101.00
2022-08-18T08:24:29.974Z,93.00
2022-08-18T08:25:45.838Z,93.90
2022-08-18T08:26:30.946Z,93.50
2022-08-18T08:27:28.939Z,88.10
2022-08-18T08:28:28.950Z,96.80
2022-08-18T08:29:28.891Z,95.30
2022-08-18T08:30:28.900Z,99.30
2022-08-18T08:31:37.606Z,98.00
2022-08-18T08:32:30.863Z,97.90
2022-08-18T08:33:28.856Z,91.40
2022-08-18T08:34:28.854Z,101.40
2022-08-18T08:35:49.113Z,97.60
2022-08-18T08:36:29.822Z,96.20
2022-08-18T08:37:28.817Z,98.30
2022-08-18T08:38:42.150Z,90.00
2022-08-18T08:39:30.839Z,95.40
2022-08-18T08:40:28.823Z,96.10
2022-08-18T08:41:28.776Z,96.10
2022-08-18T08:42:30.697Z,85.70
2022-08-18T08:43:28.759Z,77.30
2022-08-18T08:44:28.746Z,88.20
2022-08-18T08:45:28.779Z,84.20
2022-08-18T08:46:28.731Z,92.50
2022-08-18T08:47:28.720Z,89.60
2022-08-18T08:48:28.707Z,92.90
2022-08-18T08:49:28.699Z,94.20
2022-08-18T08:50:28.690Z,89.10
2022-08-18T08:51:30.166Z,91.50
2022-08-18T08:52:28.666Z,88.80
2022-08-18T08:53:28.657Z,85.60
2022-08-18T08:54:28.657Z,96.40
2022-08-18T08:55:28.638Z,91.10
2022-08-18T08:56:28.657Z,87.20
2022-08-18T08:57:28.620Z,87.70
2022-08-18T08:58:28.643Z,96.60
2022-08-18T08:59:28.607Z,86.80
2022-08-18T09:00:28.593Z,93.10
2022-08-18T09:01:28.593Z,92.90
2022-08-18T09:02:49.111Z,91.30
2022-08-18T09:03:31.071Z,87.10
2022-08-18T09:04:28.548Z,82.70
2022-08-18T09:05:28.539Z,81.10
2022-08-18T09:06:28.524Z,77.90
2022-08-18T09:07:28.526Z,79.70
2022-08-18T09:08:29.510Z,79.30
2022-08-18T09:09:28.500Z,74.80
2022-08-18T09:10:28.506Z,75.10
2022-08-18T09:11:28.508Z,68.30
2022-08-18T09:12:28.546Z,68.70
2022-08-18T09:13:29.297Z,64.40
2022-08-18T09:14:29.449Z,65.70
2022-08-18T09:15:28.440Z,65.90
2022-08-18T09:16:28.444Z,57.00
2022-08-18T09:17:34.249Z,61.80
2022-08-18T09:18:29.423Z,65.90
2022-08-18T09:19:28.404Z,67.90
2022-08-18T09:20:28.393Z,65.20
2022-08-18T09:21:28.408Z,62.90
2022-08-18T09:22:28.371Z,69.10
2022-08-18T09:23:28.400Z,65.10
2022-08-18T09:24:28.352Z,64.60
2022-08-18T09:25:28.344Z,68.60
2022-08-18T09:26:28.346Z,64.50
2022-08-18T09:27:28.324Z,65.40
2022-08-18T09:28:28.341Z,72.00
2022-08-18T09:29:28.305Z,65.90
2022-08-18T09:30:28.297Z,65.50
2022-08-18T09:31:31.747Z,64.20
2022-08-18T09:32:28.275Z,66.10
2022-08-18T09:33:28.261Z,66.30
2022-08-18T09:34:28.309Z,73.20
2022-08-18T09:35:28.243Z,66.30
2022-08-18T09:36:28.258Z,69.60
2022-08-18T09:37:28.223Z,61.10
2022-08-18T09:38:28.213Z,64.50
2022-08-18T09:39:28.315Z,63.40
2022-08-18T09:40:51.325Z,62.40
2022-08-18T09:41:31.287Z,60.30
2022-08-18T09:42:30.070Z,61.20
2022-08-18T09:43:28.162Z,59.10
2022-08-18T09:44:28.154Z,62.40
2022-08-18T09:45:32.557Z,58.20
2022-08-18T09:46:30.140Z,58.20
2022-08-18T09:47:28.125Z,63.20
2022-08-18T09:48:28.667Z,60.40
2022-08-18T09:49:28.099Z,69.90
2022-08-18T09:50:28.125Z,67.30
2022-08-18T09:51:28.084Z,65.30
2022-08-18T09:52:28.099Z,62.60
2022-08-18T09:53:28.065Z,57.60
2022-08-18T09:54:28.058Z,59.40
2022-08-18T09:55:28.829Z,57.80
2022-08-18T09:56:28.767Z,56.90
2022-08-18T09:57:28.028Z,57.60
2022-08-18T09:58:28.022Z,56.10
2022-08-18T09:59:28.011Z,55.60
2022-08-18T10:00:28.283Z,55.30
2022-08-18T10:01:28.074Z,57.20
2022-08-18T10:02:28.540Z,58.50
2022-08-18T10:03:31.215Z,52.30
2022-08-18T10:04:28.984Z,54.40
2022-08-18T10:05:27.950Z,56.30
2022-08-18T10:06:27.940Z,57.20
2022-08-18T10:07:27.963Z,51.20
2022-08-18T10:08:27.920Z,56.70
2022-08-18T10:09:36.785Z,54.90
2022-08-18T10:11:00.599Z,53.10
2022-08-18T10:11:28.896Z,56.00
2022-08-18T10:12:27.914Z,52.40
2022-08-18T10:13:27.878Z,47.50
2022-08-18T10:14:27.876Z,49.90
2022-08-18T10:15:33.658Z,50.80
2022-08-18T10:16:28.846Z,48.00
2022-08-18T10:17:27.839Z,52.40
2022-08-18T10:18:27.865Z,46.60
2022-08-18T10:19:33.973Z,51.10
2022-08-18T10:20:29.808Z,54.80
2022-08-18T10:21:27.799Z,54.80
2022-08-18T10:22:33.932Z,54.00
2022-08-18T10:23:28.808Z,49.80
2022-08-18T10:24:36.484Z,53.00
2022-08-18T10:25:29.762Z,48.70
2022-08-18T10:26:27.750Z,53.60
2022-08-18T10:27:27.742Z,51.40
2022-08-18T10:28:27.734Z,48.10
2022-08-18T10:29:27.764Z,46.30
2022-08-18T10:31:28.704Z,41.70
2022-08-18T10:32:27.695Z,42.10
2022-08-18T10:33:27.688Z,43.60
2022-08-18T10:34:27.702Z,47.40
2022-08-18T10:35:29.283Z,38.50
2022-08-18T10:36:29.673Z,42.50
2022-08-18T10:38:30.783Z,40.30
2022-08-18T10:39:27.732Z,39.70
2022-08-18T10:40:28.628Z,41.70
2022-08-18T10:41:30.989Z,41.00
2022-08-18T10:42:30.946Z,38.20
2022-08-18T10:44:31.056Z,40.50
2022-08-18T10:45:28.594Z,43.70
2022-08-18T10:46:31.922Z,38.50
2022-08-18T10:48:28.539Z,36.80
2022-08-18T10:49:27.568Z,38.40
2022-08-18T10:50:27.543Z,40.50
2022-08-18T10:51:27.609Z,41.70
2022-08-18T10:52:27.515Z,38.10
2022-08-18T10:53:44.529Z,39.30
2022-08-18T10:54:29.487Z,38.60
2022-08-18T10:55:48.098Z,37.60
2022-08-18T10:56:28.479Z,38.70
2022-08-18T10:57:27.452Z,35.90
2022-08-18T10:59:29.177Z,40.00
2022-08-18T11:00:27.476Z,41.20
2022-08-18T11:01:27.433Z,37.60
2022-08-18T11:02:27.415Z,34.90
2022-08-18T11:03:51.745Z,34.30
2022-08-18T11:04:34.655Z,44.20
2022-08-18T11:05:28.420Z,48.70
2022-08-18T11:06:27.465Z,39.20
2022-08-18T11:07:28.717Z,39.00
2022-08-18T11:08:27.353Z,43.90
2022-08-18T11:09:27.344Z,52.80
2022-08-18T11:10:30.037Z,56.80
2022-08-18T11:11:34.469Z,58.80
2022-08-18T11:12:29.315Z,50.20
2022-08-18T11:13:27.307Z,45.00
2022-08-18T11:14:27.297Z,45.90
2022-08-18T11:15:27.294Z,51.70
2022-08-18T11:16:28.337Z,51.70
2022-08-18T11:17:27.271Z,53.90
2022-08-18T11:18:27.276Z,52.10
2022-08-18T11:19:27.250Z,50.20
2022-08-18T11:20:27.235Z,50.90
2022-08-18T11:21:27.270Z,46.90
2022-08-18T11:22:32.532Z,49.80
2022-08-18T11:23:28.207Z,46.50
2022-08-18T11:24:27.202Z,43.80
2022-08-18T11:25:28.001Z,40.40
2022-08-18T11:26:27.182Z,46.60
2022-08-18T11:27:27.208Z,48.30
2022-08-18T11:29:28.159Z,36.60
2022-08-18T11:30:30.848Z,41.40
2022-08-18T11:31:27.139Z,32.50
2022-08-18T11:32:27.144Z,29.90
2022-08-18T11:33:27.124Z,29.30
2022-08-18T11:34:27.109Z,30.10
2022-08-18T11:35:27.680Z,33.20
2022-08-18T11:36:27.086Z,33.40
2022-08-18T11:37:27.094Z,35.80
2022-08-18T11:38:27.065Z,34.60
2022-08-18T11:39:37.743Z,34.00
2022-08-18T11:41:08.764Z,34.90
2022-08-18T11:41:47.815Z,31.40
2022-08-18T11:42:28.075Z,34.30
2022-08-18T11:43:27.041Z,33.70
2022-08-18T11:44:27.011Z,31.00
2022-08-18T11:45:27.002Z,28.90
2022-08-18T11:46:29.828Z,33.30
2022-08-18T11:47:27.990Z,32.60
2022-08-18T11:48:37.692Z,30.80
2022-08-18T11:49:28.960Z,33.00
2022-08-18T11:50:26.952Z,35.40
2022-08-18T11:51:27.121Z,34.30
2022-08-18T11:52:29.339Z,33.90
2022-08-18T11:53:27.939Z,33.50
2022-08-18T11:54:26.908Z,34.90
2022-08-18T11:55:26.900Z,29.90
2022-08-18T11:56:31.248Z,27.70
2022-08-18T11:57:27.922Z,35.30
2022-08-18T11:58:26.873Z,33.80
2022-08-18T11:59:53.382Z,38.00
2022-08-18T12:00:27.856Z,35.80
2022-08-18T12:01:26.844Z,33.80
2022-08-18T12:02:27.837Z,36.20
2022-08-18T12:03:28.598Z,35.70
2022-08-18T12:04:28.971Z,40.90
2022-08-18T12:05:26.810Z,39.70
2022-08-18T12:06:27.834Z,44.40
2022-08-18T12:07:26.793Z,36.10
2022-08-18T12:08:54.620Z,39.40
2022-08-18T12:10:05.084Z,35.60
2022-08-18T12:10:29.377Z,35.60
2022-08-18T12:11:27.920Z,36.00
2022-08-18T12:12:28.382Z,33.70
2022-08-18T12:13:27.754Z,32.00
2022-08-18T12:14:30.556Z,33.80
2022-08-18T12:16:27.710Z,34.00
2022-08-18T12:17:26.703Z,29.90
2022-08-18T12:18:29.795Z,34.50
2022-08-18T12:19:27.188Z,32.00
2022-08-18T12:20:26.673Z,29.60
2022-08-18T12:21:26.670Z,31.80
2022-08-18T12:22:26.650Z,30.70
2022-08-18T12:23:26.684Z,31.80
2022-08-18T12:24:34.641Z,29.80
2022-08-18T12:25:27.640Z,29.30
2022-08-18T12:26:38.596Z,26.90
2022-08-18T12:27:31.946Z,26.70
2022-08-18T12:28:28.531Z,27.90
2022-08-18T12:29:36.585Z,25.60
2022-08-18T12:30:28.574Z,27.40
2022-08-18T12:31:28.951Z,30.60
2022-08-18T12:32:50.047Z,30.50
2022-08-18T12:33:34.320Z,25.50
2022-08-18T12:34:27.564Z,28.80
2022-08-18T12:35:26.530Z,26.80
2022-08-18T12:36:29.063Z,25.80
2022-08-18T12:38:28.505Z,25.20
2022-08-18T12:39:26.512Z,25.50
2022-08-18T12:40:26.685Z,26.60
2022-08-18T12:41:26.478Z,27.90
2022-08-18T12:42:26.467Z,27.80
2022-08-18T12:43:26.461Z,33.20
2022-08-18T12:44:27.545Z,26.20
2022-08-18T12:45:27.089Z,26.80
2022-08-18T12:46:26.429Z,26.80
2022-08-18T12:47:26.418Z,28.60